Allenton, Michigan
Current Conditions -  °F | °C
As of 7:54 AM on Friday 31 Oct 2014 (Local Time) from KD95 Reporting Station
Drizzle Drizzle  
Wind Chill: 41°   Ceiling: 2800
Heat Index: 41°   Visibility: 7mi
Dew Point: 39°   Wind: 0mph
Humidity: 93%   Direction: NA
Pressure: 29.88"   Gusts: NA
Location:  42.92°N, 82.95°W
Report Text: KD95 311154Z AUTO 00000KT 7SM DZ SCT016 BKN028 OVC038 05/04 A2988 RMK AO2 T00520041
Loading
Personal Weather Stations






























Interactive Weather Map
Tropical Storm Tracking
New forecast layout! Learn more

10-Day Weather Forecast

Advertisements
Track Severe Weather on mobile